sensor_id;sensor_type;location;lat;lon;timestamp;P1;durP1;ratioP1;P2;durP2;ratioP2
3916;SDS011;1973;50.518;7.318;2023-08-21T00:02:10;16.60;;;15.23;;
3916;SDS011;1973;50.518;7.318;2023-08-21T00:04:37;17.03;;;15.60;;
3916;SDS011;1973;50.518;7.318;2023-08-21T00:07:03;16.37;;;14.97;;
3916;SDS011;1973;50.518;7.318;2023-08-21T00:09:30;17.43;;;15.90;;
3916;SDS011;1973;50.518;7.318;2023-08-21T00:11:56;17.67;;;15.93;;
3916;SDS011;1973;50.518;7.318;2023-08-21T00:14:23;17.90;;;16.30;;
3916;SDS011;1973;50.518;7.318;2023-08-21T00:16:49;18.10;;;16.23;;
3916;SDS011;1973;50.518;7.318;2023-08-21T00:19:16;17.83;;;16.03;;
3916;SDS011;1973;50.518;7.318;2023-08-21T00:21:42;16.57;;;15.07;;
3916;SDS011;1973;50.518;7.318;2023-08-21T00:24:09;16.40;;;15.10;;
3916;SDS011;1973;50.518;7.318;2023-08-21T00:26:36;18.77;;;17.17;;
3916;SDS011;1973;50.518;7.318;2023-08-21T00:29:02;17.00;;;15.60;;
3916;SDS011;1973;50.518;7.318;2023-08-21T00:31:29;17.03;;;15.73;;
3916;SDS011;1973;50.518;7.318;2023-08-21T00:33:55;19.10;;;17.10;;
3916;SDS011;1973;50.518;7.318;2023-08-21T00:36:22;16.60;;;15.30;;
3916;SDS011;1973;50.518;7.318;2023-08-21T00:38:48;17.80;;;16.10;;
3916;SDS011;1973;50.518;7.318;2023-08-21T00:41:15;17.97;;;16.37;;
3916;SDS011;1973;50.518;7.318;2023-08-21T00:43:42;18.47;;;16.93;;
3916;SDS011;1973;50.518;7.318;2023-08-21T00:46:08;17.10;;;15.53;;
3916;SDS011;1973;50.518;7.318;2023-08-21T00:48:35;18.07;;;16.47;;
3916;SDS011;1973;50.518;7.318;2023-08-21T00:51:03;19.00;;;17.10;;
3916;SDS011;1973;50.518;7.318;2023-08-21T00:53:30;18.40;;;16.77;;
3916;SDS011;1973;50.518;7.318;2023-08-21T00:55:57;17.77;;;16.17;;
3916;SDS011;1973;50.518;7.318;2023-08-21T00:58:23;18.60;;;16.80;;
3916;SDS011;1973;50.518;7.318;2023-08-21T01:00:50;17.93;;;16.40;;
3916;SDS011;1973;50.518;7.318;2023-08-21T01:03:18;19.03;;;17.33;;
3916;SDS011;1973;50.518;7.318;2023-08-21T01:05:45;19.20;;;17.70;;
3916;SDS011;1973;50.518;7.318;2023-08-21T01:08:17;20.03;;;18.13;;
3916;SDS011;1973;50.518;7.318;2023-08-21T01:10:56;18.47;;;16.87;;
3916;SDS011;1973;50.518;7.318;2023-08-21T01:16:15;18.27;;;16.47;;
3916;SDS011;1973;50.518;7.318;2023-08-21T01:18:43;20.10;;;18.30;;
3916;SDS011;1973;50.518;7.318;2023-08-21T01:21:13;21.10;;;19.17;;
3916;SDS011;1973;50.518;7.318;2023-08-21T01:23:41;18.97;;;17.37;;
3916;SDS011;1973;50.518;7.318;2023-08-21T01:26:11;19.67;;;18.07;;
3916;SDS011;1973;50.518;7.318;2023-08-21T01:28:37;21.37;;;19.37;;
3916;SDS011;1973;50.518;7.318;2023-08-21T01:31:15;20.87;;;19.10;;
3916;SDS011;1973;50.518;7.318;2023-08-21T01:33:48;20.50;;;18.67;;
3916;SDS011;1973;50.518;7.318;2023-08-21T01:36:20;21.17;;;19.47;;
3916;SDS011;1973;50.518;7.318;2023-08-21T01:38:47;20.87;;;19.00;;
3916;SDS011;1973;50.518;7.318;2023-08-21T01:41:13;20.40;;;18.60;;
3916;SDS011;1973;50.518;7.318;2023-08-21T01:43:40;20.80;;;19.00;;
3916;SDS011;1973;50.518;7.318;2023-08-21T01:46:07;21.20;;;19.20;;
3916;SDS011;1973;50.518;7.318;2023-08-21T01:48:33;19.33;;;17.70;;
3916;SDS011;1973;50.518;7.318;2023-08-21T01:51:00;21.90;;;20.07;;
3916;SDS011;1973;50.518;7.318;2023-08-21T01:53:28;20.90;;;19.20;;
3916;SDS011;1973;50.518;7.318;2023-08-21T01:55:55;21.63;;;18.50;;
3916;SDS011;1973;50.518;7.318;2023-08-21T01:58:21;24.03;;;19.00;;
3916;SDS011;1973;50.518;7.318;2023-08-21T02:00:48;21.77;;;20.00;;
3916;SDS011;1973;50.518;7.318;2023-08-21T02:03:14;21.73;;;19.97;;
3916;SDS011;1973;50.518;7.318;2023-08-21T02:05:41;23.33;;;21.33;;
3916;SDS011;1973;50.518;7.318;2023-08-21T02:08:09;21.40;;;19.63;;
3916;SDS011;1973;50.518;7.318;2023-08-21T02:10:46;23.10;;;20.70;;
3916;SDS011;1973;50.518;7.318;2023-08-21T02:13:13;23.77;;;20.93;;
3916;SDS011;1973;50.518;7.318;2023-08-21T02:15:40;23.57;;;21.50;;
3916;SDS011;1973;50.518;7.318;2023-08-21T02:18:06;22.47;;;20.33;;
3916;SDS011;1973;50.518;7.318;2023-08-21T02:20:33;21.00;;;19.00;;
3916;SDS011;1973;50.518;7.318;2023-08-21T02:22:59;21.93;;;20.00;;
3916;SDS011;1973;50.518;7.318;2023-08-21T02:25:26;21.50;;;19.80;;
3916;SDS011;1973;50.518;7.318;2023-08-21T02:27:52;20.93;;;19.23;;
3916;SDS011;1973;50.518;7.318;2023-08-21T02:30:19;20.57;;;18.87;;
3916;SDS011;1973;50.518;7.318;2023-08-21T02:32:46;22.27;;;20.30;;
3916;SDS011;1973;50.518;7.318;2023-08-21T02:35:13;21.80;;;19.83;;
3916;SDS011;1973;50.518;7.318;2023-08-21T02:37:39;21.97;;;20.17;;
3916;SDS011;1973;50.518;7.318;2023-08-21T02:40:06;21.70;;;19.90;;
3916;SDS011;1973;50.518;7.318;2023-08-21T02:42:35;20.77;;;18.87;;
3916;SDS011;1973;50.518;7.318;2023-08-21T02:45:03;22.50;;;20.30;;
3916;SDS011;1973;50.518;7.318;2023-08-21T02:47:37;20.30;;;18.60;;
3916;SDS011;1973;50.518;7.318;2023-08-21T02:50:05;22.87;;;20.77;;
3916;SDS011;1973;50.518;7.318;2023-08-21T02:52:33;21.07;;;19.30;;
3916;SDS011;1973;50.518;7.318;2023-08-21T02:55:00;21.33;;;19.40;;
3916;SDS011;1973;50.518;7.318;2023-08-21T02:57:27;22.23;;;20.40;;
3916;SDS011;1973;50.518;7.318;2023-08-21T02:59:54;20.00;;;18.30;;
3916;SDS011;1973;50.518;7.318;2023-08-21T03:02:21;21.03;;;19.33;;
3916;SDS011;1973;50.518;7.318;2023-08-21T03:04:48;20.40;;;18.80;;
3916;SDS011;1973;50.518;7.318;2023-08-21T03:07:15;20.70;;;18.60;;
3916;SDS011;1973;50.518;7.318;2023-08-21T03:09:44;20.73;;;18.77;;
3916;SDS011;1973;50.518;7.318;2023-08-21T03:12:13;20.67;;;18.83;;
3916;SDS011;1973;50.518;7.318;2023-08-21T03:14:39;19.57;;;18.00;;
3916;SDS011;1973;50.518;7.318;2023-08-21T03:17:06;22.10;;;20.00;;
3916;SDS011;1973;50.518;7.318;2023-08-21T03:19:33;20.23;;;18.53;;
3916;SDS011;1973;50.518;7.318;2023-08-21T03:22:00;20.20;;;18.40;;
3916;SDS011;1973;50.518;7.318;2023-08-21T03:24:26;20.83;;;19.03;;
3916;SDS011;1973;50.518;7.318;2023-08-21T03:26:53;22.10;;;20.37;;
3916;SDS011;1973;50.518;7.318;2023-08-21T03:29:19;21.00;;;19.30;;
3916;SDS011;1973;50.518;7.318;2023-08-21T03:31:48;21.07;;;19.17;;
3916;SDS011;1973;50.518;7.318;2023-08-21T03:34:15;22.47;;;20.57;;
3916;SDS011;1973;50.518;7.318;2023-08-21T03:36:42;20.87;;;19.07;;
3916;SDS011;1973;50.518;7.318;2023-08-21T03:39:09;22.93;;;20.83;;
3916;SDS011;1973;50.518;7.318;2023-08-21T03:41:35;22.33;;;20.53;;
3916;SDS011;1973;50.518;7.318;2023-08-21T03:44:02;21.27;;;19.47;;
3916;SDS011;1973;50.518;7.318;2023-08-21T03:46:28;21.17;;;19.17;;
3916;SDS011;1973;50.518;7.318;2023-08-21T03:48:55;21.03;;;19.17;;
3916;SDS011;1973;50.518;7.318;2023-08-21T03:51:22;20.53;;;18.73;;
3916;SDS011;1973;50.518;7.318;2023-08-21T03:53:49;19.90;;;18.20;;
3916;SDS011;1973;50.518;7.318;2023-08-21T03:56:16;20.77;;;18.97;;
3916;SDS011;1973;50.518;7.318;2023-08-21T03:58:42;20.63;;;18.83;;
3916;SDS011;1973;50.518;7.318;2023-08-21T04:01:09;21.53;;;19.53;;
3916;SDS011;1973;50.518;7.318;2023-08-21T04:03:36;19.27;;;17.53;;
3916;SDS011;1973;50.518;7.318;2023-08-21T04:06:03;21.03;;;19.10;;
3916;SDS011;1973;50.518;7.318;2023-08-21T04:08:29;26.63;;;19.30;;
3916;SDS011;1973;50.518;7.318;2023-08-21T04:10:56;19.40;;;17.57;;
3916;SDS011;1973;50.518;7.318;2023-08-21T04:13:26;20.47;;;18.43;;
3916;SDS011;1973;50.518;7.318;2023-08-21T04:15:53;19.20;;;17.50;;
3916;SDS011;1973;50.518;7.318;2023-08-21T04:18:20;20.90;;;18.20;;
3916;SDS011;1973;50.518;7.318;2023-08-21T04:21:06;20.40;;;16.90;;
3916;SDS011;1973;50.518;7.318;2023-08-21T04:23:32;19.77;;;18.00;;
3916;SDS011;1973;50.518;7.318;2023-08-21T04:26:02;18.97;;;17.20;;
3916;SDS011;1973;50.518;7.318;2023-08-21T04:28:30;20.03;;;18.10;;
3916;SDS011;1973;50.518;7.318;2023-08-21T04:30:57;18.23;;;16.63;;
3916;SDS011;1973;50.518;7.318;2023-08-21T04:33:25;19.00;;;17.17;;
3916;SDS011;1973;50.518;7.318;2023-08-21T04:35:55;20.00;;;18.00;;
3916;SDS011;1973;50.518;7.318;2023-08-21T04:38:22;18.97;;;17.10;;
3916;SDS011;1973;50.518;7.318;2023-08-21T04:40:48;19.33;;;17.37;;
3916;SDS011;1973;50.518;7.318;2023-08-21T04:43:15;18.70;;;17.10;;
3916;SDS011;1973;50.518;7.318;2023-08-21T04:45:48;20.10;;;18.20;;
3916;SDS011;1973;50.518;7.318;2023-08-21T04:48:16;18.87;;;17.00;;
3916;SDS011;1973;50.518;7.318;2023-08-21T04:50:43;18.93;;;16.20;;
3916;SDS011;1973;50.518;7.318;2023-08-21T04:53:10;18.90;;;17.00;;
3916;SDS011;1973;50.518;7.318;2023-08-21T04:55:36;18.80;;;17.00;;
3916;SDS011;1973;50.518;7.318;2023-08-21T04:58:03;19.97;;;18.03;;
3916;SDS011;1973;50.518;7.318;2023-08-21T05:00:30;17.43;;;15.90;;
3916;SDS011;1973;50.518;7.318;2023-08-21T05:02:57;17.17;;;15.60;;
3916;SDS011;1973;50.518;7.318;2023-08-21T05:05:23;18.33;;;16.70;;
3916;SDS011;1973;50.518;7.318;2023-08-21T05:07:51;16.33;;;14.73;;
3916;SDS011;1973;50.518;7.318;2023-08-21T05:10:18;18.90;;;17.30;;
3916;SDS011;1973;50.518;7.318;2023-08-21T05:12:45;16.73;;;15.23;;
3916;SDS011;1973;50.518;7.318;2023-08-21T05:15:12;18.23;;;16.73;;
3916;SDS011;1973;50.518;7.318;2023-08-21T05:17:40;18.70;;;17.10;;
3916;SDS011;1973;50.518;7.318;2023-08-21T05:20:07;17.27;;;15.77;;
3916;SDS011;1973;50.518;7.318;2023-08-21T05:22:34;17.23;;;15.50;;
3916;SDS011;1973;50.518;7.318;2023-08-21T05:25:02;18.57;;;16.60;;
3916;SDS011;1973;50.518;7.318;2023-08-21T05:27:28;17.40;;;16.00;;
3916;SDS011;1973;50.518;7.318;2023-08-21T05:29:55;16.60;;;15.20;;
3916;SDS011;1973;50.518;7.318;2023-08-21T05:32:21;17.10;;;15.50;;
3916;SDS011;1973;50.518;7.318;2023-08-21T05:34:48;17.97;;;16.13;;
3916;SDS011;1973;50.518;7.318;2023-08-21T05:37:15;16.80;;;15.40;;
3916;SDS011;1973;50.518;7.318;2023-08-21T05:39:41;16.10;;;14.70;;
3916;SDS011;1973;50.518;7.318;2023-08-21T05:42:08;18.90;;;17.00;;
3916;SDS011;1973;50.518;7.318;2023-08-21T05:44:34;17.20;;;15.60;;
3916;SDS011;1973;50.518;7.318;2023-08-21T05:47:01;18.50;;;16.90;;
3916;SDS011;1973;50.518;7.318;2023-08-21T05:49:27;18.07;;;16.37;;
3916;SDS011;1973;50.518;7.318;2023-08-21T05:51:55;18.70;;;17.20;;
3916;SDS011;1973;50.518;7.318;2023-08-21T05:54:25;17.13;;;15.67;;
3916;SDS011;1973;50.518;7.318;2023-08-21T05:56:51;17.13;;;15.63;;
3916;SDS011;1973;50.518;7.318;2023-08-21T05:59:29;18.63;;;17.07;;
3916;SDS011;1973;50.518;7.318;2023-08-21T06:01:57;18.63;;;16.93;;
3916;SDS011;1973;50.518;7.318;2023-08-21T06:04:24;20.97;;;18.77;;
3916;SDS011;1973;50.518;7.318;2023-08-21T06:06:51;20.73;;;18.80;;
3916;SDS011;1973;50.518;7.318;2023-08-21T06:09:18;20.97;;;18.83;;
3916;SDS011;1973;50.518;7.318;2023-08-21T06:11:45;20.43;;;18.60;;
3916;SDS011;1973;50.518;7.318;2023-08-21T06:14:12;21.10;;;19.30;;
3916;SDS011;1973;50.518;7.318;2023-08-21T06:16:38;19.53;;;18.03;;
3916;SDS011;1973;50.518;7.318;2023-08-21T06:19:06;20.33;;;18.10;;
3916;SDS011;1973;50.518;7.318;2023-08-21T06:21:32;21.00;;;17.93;;
3916;SDS011;1973;50.518;7.318;2023-08-21T06:23:59;20.87;;;18.97;;
3916;SDS011;1973;50.518;7.318;2023-08-21T06:26:25;19.60;;;17.57;;
3916;SDS011;1973;50.518;7.318;2023-08-21T06:28:52;20.40;;;18.47;;
3916;SDS011;1973;50.518;7.318;2023-08-21T06:31:19;21.50;;;19.60;;
3916;SDS011;1973;50.518;7.318;2023-08-21T06:33:46;19.70;;;17.90;;
3916;SDS011;1973;50.518;7.318;2023-08-21T06:36:13;20.00;;;18.07;;
3916;SDS011;1973;50.518;7.318;2023-08-21T06:38:40;20.77;;;18.80;;
3916;SDS011;1973;50.518;7.318;2023-08-21T06:41:07;20.10;;;18.20;;
3916;SDS011;1973;50.518;7.318;2023-08-21T06:43:38;18.87;;;17.33;;
3916;SDS011;1973;50.518;7.318;2023-08-21T06:46:08;22.17;;;18.87;;
3916;SDS011;1973;50.518;7.318;2023-08-21T06:48:37;20.13;;;18.10;;
3916;SDS011;1973;50.518;7.318;2023-08-21T06:51:04;20.27;;;18.47;;
3916;SDS011;1973;50.518;7.318;2023-08-21T06:53:31;19.30;;;17.57;;
3916;SDS011;1973;50.518;7.318;2023-08-21T06:55:58;21.10;;;17.80;;
3916;SDS011;1973;50.518;7.318;2023-08-21T06:58:24;19.60;;;18.00;;
3916;SDS011;1973;50.518;7.318;2023-08-21T07:00:53;20.17;;;18.03;;
3916;SDS011;1973;50.518;7.318;2023-08-21T07:03:20;21.80;;;19.60;;
3916;SDS011;1973;50.518;7.318;2023-08-21T07:05:53;22.67;;;19.43;;
3916;SDS011;1973;50.518;7.318;2023-08-21T07:08:23;21.03;;;19.43;;
3916;SDS011;1973;50.518;7.318;2023-08-21T07:10:51;21.70;;;19.50;;
3916;SDS011;1973;50.518;7.318;2023-08-21T07:13:18;22.33;;;20.33;;
3916;SDS011;1973;50.518;7.318;2023-08-21T07:15:46;21.40;;;19.30;;
3916;SDS011;1973;50.518;7.318;2023-08-21T07:18:13;21.53;;;19.60;;
3916;SDS011;1973;50.518;7.318;2023-08-21T07:20:40;23.20;;;19.10;;
3916;SDS011;1973;50.518;7.318;2023-08-21T07:23:06;21.20;;;19.10;;
3916;SDS011;1973;50.518;7.318;2023-08-21T07:25:33;20.97;;;19.17;;
3916;SDS011;1973;50.518;7.318;2023-08-21T07:27:59;23.23;;;18.50;;
3916;SDS011;1973;50.518;7.318;2023-08-21T07:30:27;17.47;;;15.93;;
3916;SDS011;1973;50.518;7.318;2023-08-21T07:32:54;18.37;;;16.73;;
3916;SDS011;1973;50.518;7.318;2023-08-21T07:35:21;17.60;;;16.00;;
3916;SDS011;1973;50.518;7.318;2023-08-21T07:37:47;18.83;;;17.03;;
3916;SDS011;1973;50.518;7.318;2023-08-21T07:40:14;18.90;;;17.20;;
3916;SDS011;1973;50.518;7.318;2023-08-21T07:42:41;19.50;;;17.80;;
3916;SDS011;1973;50.518;7.318;2023-08-21T07:45:07;18.20;;;16.40;;
3916;SDS011;1973;50.518;7.318;2023-08-21T07:47:34;18.00;;;16.23;;
3916;SDS011;1973;50.518;7.318;2023-08-21T07:50:03;20.97;;;16.80;;
3916;SDS011;1973;50.518;7.318;2023-08-21T07:52:31;17.30;;;15.80;;
3916;SDS011;1973;50.518;7.318;2023-08-21T07:54:57;19.20;;;17.20;;
3916;SDS011;1973;50.518;7.318;2023-08-21T07:57:25;17.57;;;15.87;;
3916;SDS011;1973;50.518;7.318;2023-08-21T07:59:52;21.53;;;19.03;;
3916;SDS011;1973;50.518;7.318;2023-08-21T08:02:21;17.40;;;15.67;;
3916;SDS011;1973;50.518;7.318;2023-08-21T08:04:47;18.53;;;16.93;;
3916;SDS011;1973;50.518;7.318;2023-08-21T08:07:14;16.10;;;14.60;;
3916;SDS011;1973;50.518;7.318;2023-08-21T08:09:40;16.70;;;15.20;;
3916;SDS011;1973;50.518;7.318;2023-08-21T08:12:07;19.77;;;17.97;;
3916;SDS011;1973;50.518;7.318;2023-08-21T08:14:35;18.03;;;16.20;;
3916;SDS011;1973;50.518;7.318;2023-08-21T08:17:01;16.10;;;14.50;;
3916;SDS011;1973;50.518;7.318;2023-08-21T08:19:28;15.03;;;13.67;;
3916;SDS011;1973;50.518;7.318;2023-08-21T08:21:54;17.17;;;15.47;;
3916;SDS011;1973;50.518;7.318;2023-08-21T08:24:21;18.13;;;16.43;;
3916;SDS011;1973;50.518;7.318;2023-08-21T08:26:47;18.93;;;16.00;;
3916;SDS011;1973;50.518;7.318;2023-08-21T08:29:15;16.80;;;15.20;;
3916;SDS011;1973;50.518;7.318;2023-08-21T08:31:41;16.30;;;14.70;;
3916;SDS011;1973;50.518;7.318;2023-08-21T08:34:08;15.83;;;14.30;;
3916;SDS011;1973;50.518;7.318;2023-08-21T08:36:34;26.10;;;14.67;;
3916;SDS011;1973;50.518;7.318;2023-08-21T08:39:01;15.20;;;13.70;;
3916;SDS011;1973;50.518;7.318;2023-08-21T08:43:57;15.70;;;14.10;;
3916;SDS011;1973;50.518;7.318;2023-08-21T08:46:24;14.57;;;13.10;;
3916;SDS011;1973;50.518;7.318;2023-08-21T08:48:52;13.23;;;12.07;;
3916;SDS011;1973;50.518;7.318;2023-08-21T08:51:19;13.40;;;12.30;;
3916;SDS011;1973;50.518;7.318;2023-08-21T08:53:45;14.17;;;13.00;;
3916;SDS011;1973;50.518;7.318;2023-08-21T08:56:13;13.90;;;12.70;;
3916;SDS011;1973;50.518;7.318;2023-08-21T08:58:40;14.90;;;11.67;;
3916;SDS011;1973;50.518;7.318;2023-08-21T09:01:09;12.87;;;11.53;;
3916;SDS011;1973;50.518;7.318;2023-08-21T09:03:38;14.00;;;12.53;;
3916;SDS011;1973;50.518;7.318;2023-08-21T09:06:05;14.67;;;12.33;;
3916;SDS011;1973;50.518;7.318;2023-08-21T09:08:32;14.80;;;12.07;;
3916;SDS011;1973;50.518;7.318;2023-08-21T09:11:02;13.33;;;12.20;;
3916;SDS011;1973;50.518;7.318;2023-08-21T09:13:31;14.70;;;13.20;;
3916;SDS011;1973;50.518;7.318;2023-08-21T09:15:59;12.00;;;11.00;;
3916;SDS011;1973;50.518;7.318;2023-08-21T09:18:26;13.50;;;12.20;;
3916;SDS011;1973;50.518;7.318;2023-08-21T09:20:52;12.77;;;11.60;;
3916;SDS011;1973;50.518;7.318;2023-08-21T09:23:19;16.13;;;11.73;;
3916;SDS011;1973;50.518;7.318;2023-08-21T09:25:46;12.27;;;10.80;;
3916;SDS011;1973;50.518;7.318;2023-08-21T09:28:18;12.17;;;10.97;;
3916;SDS011;1973;50.518;7.318;2023-08-21T09:30:49;12.10;;;11.00;;
3916;SDS011;1973;50.518;7.318;2023-08-21T09:33:18;13.57;;;12.17;;
3916;SDS011;1973;50.518;7.318;2023-08-21T09:35:51;12.47;;;11.47;;
3916;SDS011;1973;50.518;7.318;2023-08-21T09:38:18;12.87;;;11.77;;
3916;SDS011;1973;50.518;7.318;2023-08-21T09:40:54;12.50;;;11.20;;
3916;SDS011;1973;50.518;7.318;2023-08-21T09:43:22;13.73;;;12.43;;
3916;SDS011;1973;50.518;7.318;2023-08-21T09:45:51;12.07;;;11.10;;
3916;SDS011;1973;50.518;7.318;2023-08-21T09:48:20;13.77;;;12.47;;
3916;SDS011;1973;50.518;7.318;2023-08-21T09:50:49;12.60;;;11.50;;
3916;SDS011;1973;50.518;7.318;2023-08-21T09:53:17;12.20;;;11.20;;
3916;SDS011;1973;50.518;7.318;2023-08-21T09:55:44;12.03;;;10.93;;
3916;SDS011;1973;50.518;7.318;2023-08-21T09:58:12;12.73;;;11.17;;
3916;SDS011;1973;50.518;7.318;2023-08-21T10:00:39;12.47;;;11.43;;
3916;SDS011;1973;50.518;7.318;2023-08-21T10:03:07;11.70;;;10.60;;
3916;SDS011;1973;50.518;7.318;2023-08-21T10:05:37;12.43;;;11.30;;
3916;SDS011;1973;50.518;7.318;2023-08-21T10:08:06;10.10;;;9.30;;
3916;SDS011;1973;50.518;7.318;2023-08-21T10:10:34;12.57;;;11.40;;
3916;SDS011;1973;50.518;7.318;2023-08-21T10:13:03;11.50;;;10.60;;
3916;SDS011;1973;50.518;7.318;2023-08-21T10:15:31;11.50;;;10.33;;
3916;SDS011;1973;50.518;7.318;2023-08-21T10:20:46;10.97;;;9.97;;
3916;SDS011;1973;50.518;7.318;2023-08-21T10:23:29;11.27;;;10.27;;
3916;SDS011;1973;50.518;7.318;2023-08-21T10:25:58;10.20;;;9.30;;
3916;SDS011;1973;50.518;7.318;2023-08-21T10:31:37;10.70;;;9.67;;
3916;SDS011;1973;50.518;7.318;2023-08-21T10:34:06;10.00;;;9.10;;
3916;SDS011;1973;50.518;7.318;2023-08-21T10:39:18;10.07;;;9.23;;
3916;SDS011;1973;50.518;7.318;2023-08-21T10:41:56;10.90;;;10.00;;
3916;SDS011;1973;50.518;7.318;2023-08-21T10:44:33;10.60;;;9.47;;
3916;SDS011;1973;50.518;7.318;2023-08-21T10:49:51;10.07;;;9.27;;
3916;SDS011;1973;50.518;7.318;2023-08-21T10:52:23;8.23;;;7.53;;
3916;SDS011;1973;50.518;7.318;2023-08-21T10:54:50;10.30;;;9.33;;
3916;SDS011;1973;50.518;7.318;2023-08-21T10:57:18;10.17;;;9.27;;
3916;SDS011;1973;50.518;7.318;2023-08-21T10:59:52;9.00;;;8.10;;
3916;SDS011;1973;50.518;7.318;2023-08-21T11:02:32;8.77;;;8.07;;
3916;SDS011;1973;50.518;7.318;2023-08-21T11:04:59;9.03;;;8.13;;
3916;SDS011;1973;50.518;7.318;2023-08-21T11:07:27;9.20;;;8.30;;
3916;SDS011;1973;50.518;7.318;2023-08-21T11:09:53;9.07;;;8.27;;
3916;SDS011;1973;50.518;7.318;2023-08-21T11:12:21;8.83;;;7.80;;
3916;SDS011;1973;50.518;7.318;2023-08-21T11:14:48;8.27;;;7.47;;
3916;SDS011;1973;50.518;7.318;2023-08-21T11:17:16;8.00;;;7.30;;
3916;SDS011;1973;50.518;7.318;2023-08-21T11:19:47;8.90;;;8.10;;
3916;SDS011;1973;50.518;7.318;2023-08-21T11:22:17;8.93;;;8.13;;
3916;SDS011;1973;50.518;7.318;2023-08-21T11:24:44;8.30;;;7.60;;
3916;SDS011;1973;50.518;7.318;2023-08-21T11:27:14;7.50;;;6.80;;
3916;SDS011;1973;50.518;7.318;2023-08-21T11:32:15;8.70;;;7.90;;
3916;SDS011;1973;50.518;7.318;2023-08-21T11:34:50;9.07;;;8.17;;
3916;SDS011;1973;50.518;7.318;2023-08-21T11:37:18;8.30;;;7.60;;
3916;SDS011;1973;50.518;7.318;2023-08-21T11:39:51;8.80;;;8.00;;
3916;SDS011;1973;50.518;7.318;2023-08-21T11:42:20;8.03;;;7.23;;
3916;SDS011;1973;50.518;7.318;2023-08-21T11:44:50;8.40;;;7.60;;
3916;SDS011;1973;50.518;7.318;2023-08-21T11:47:19;9.47;;;8.57;;
3916;SDS011;1973;50.518;7.318;2023-08-21T11:49:49;8.27;;;7.20;;
3916;SDS011;1973;50.518;7.318;2023-08-21T11:52:19;7.23;;;6.63;;
3916;SDS011;1973;50.518;7.318;2023-08-21T11:54:48;10.00;;;7.90;;
3916;SDS011;1973;50.518;7.318;2023-08-21T11:57:16;22.23;;;20.13;;
3916;SDS011;1973;50.518;7.318;2023-08-21T11:59:43;9.23;;;8.33;;
3916;SDS011;1973;50.518;7.318;2023-08-21T12:02:17;8.43;;;7.73;;
3916;SDS011;1973;50.518;7.318;2023-08-21T12:04:45;11.57;;;10.50;;
3916;SDS011;1973;50.518;7.318;2023-08-21T12:07:18;7.93;;;7.17;;
3916;SDS011;1973;50.518;7.318;2023-08-21T12:09:47;8.57;;;7.37;;
3916;SDS011;1973;50.518;7.318;2023-08-21T12:12:15;7.00;;;6.30;;
3916;SDS011;1973;50.518;7.318;2023-08-21T12:14:42;7.80;;;7.00;;
3916;SDS011;1973;50.518;7.318;2023-08-21T12:17:08;6.93;;;6.43;;
3916;SDS011;1973;50.518;7.318;2023-08-21T12:19:35;7.13;;;6.50;;
3916;SDS011;1973;50.518;7.318;2023-08-21T12:22:03;7.33;;;6.73;;
3916;SDS011;1973;50.518;7.318;2023-08-21T12:24:30;7.10;;;6.40;;
3916;SDS011;1973;50.518;7.318;2023-08-21T12:26:57;6.77;;;6.00;;
3916;SDS011;1973;50.518;7.318;2023-08-21T12:29:23;9.10;;;7.60;;
3916;SDS011;1973;50.518;7.318;2023-08-21T12:31:50;8.20;;;7.00;;
3916;SDS011;1973;50.518;7.318;2023-08-21T12:34:16;7.40;;;6.70;;
3916;SDS011;1973;50.518;7.318;2023-08-21T12:36:43;7.07;;;6.47;;
3916;SDS011;1973;50.518;7.318;2023-08-21T12:39:10;7.77;;;6.97;;
3916;SDS011;1973;50.518;7.318;2023-08-21T12:41:36;9.03;;;7.47;;
3916;SDS011;1973;50.518;7.318;2023-08-21T12:44:03;7.20;;;6.60;;
3916;SDS011;1973;50.518;7.318;2023-08-21T12:46:30;8.73;;;7.53;;
3916;SDS011;1973;50.518;7.318;2023-08-21T12:48:57;7.77;;;7.07;;
3916;SDS011;1973;50.518;7.318;2023-08-21T12:51:23;7.30;;;6.60;;
3916;SDS011;1973;50.518;7.318;2023-08-21T12:53:50;10.20;;;7.70;;
3916;SDS011;1973;50.518;7.318;2023-08-21T12:56:16;8.13;;;7.33;;
3916;SDS011;1973;50.518;7.318;2023-08-21T12:58:43;9.37;;;7.47;;
3916;SDS011;1973;50.518;7.318;2023-08-21T13:01:10;8.47;;;7.63;;
3916;SDS011;1973;50.518;7.318;2023-08-21T13:03:36;8.70;;;7.67;;
3916;SDS011;1973;50.518;7.318;2023-08-21T13:06:03;8.57;;;7.13;;
3916;SDS011;1973;50.518;7.318;2023-08-21T13:08:30;9.87;;;6.50;;
3916;SDS011;1973;50.518;7.318;2023-08-21T13:10:57;8.57;;;6.90;;
3916;SDS011;1973;50.518;7.318;2023-08-21T13:13:23;7.17;;;6.47;;
3916;SDS011;1973;50.518;7.318;2023-08-21T13:15:50;7.17;;;6.47;;
3916;SDS011;1973;50.518;7.318;2023-08-21T13:18:17;8.33;;;6.60;;
3916;SDS011;1973;50.518;7.318;2023-08-21T13:20:43;6.63;;;6.03;;
3916;SDS011;1973;50.518;7.318;2023-08-21T13:23:10;6.27;;;5.70;;
3916;SDS011;1973;50.518;7.318;2023-08-21T13:25:37;7.03;;;6.33;;
3916;SDS011;1973;50.518;7.318;2023-08-21T13:28:03;8.90;;;7.30;;
3916;SDS011;1973;50.518;7.318;2023-08-21T13:30:30;7.60;;;6.90;;
3916;SDS011;1973;50.518;7.318;2023-08-21T13:33:00;7.90;;;6.50;;
3916;SDS011;1973;50.518;7.318;2023-08-21T13:35:26;7.83;;;6.13;;
3916;SDS011;1973;50.518;7.318;2023-08-21T13:37:53;7.90;;;6.30;;
3916;SDS011;1973;50.518;7.318;2023-08-21T13:40:20;7.63;;;6.93;;
3916;SDS011;1973;50.518;7.318;2023-08-21T13:42:47;7.00;;;6.40;;
3916;SDS011;1973;50.518;7.318;2023-08-21T13:45:15;11.63;;;6.80;;
3916;SDS011;1973;50.518;7.318;2023-08-21T13:47:44;8.37;;;7.60;;
3916;SDS011;1973;50.518;7.318;2023-08-21T13:50:16;10.43;;;8.43;;
3916;SDS011;1973;50.518;7.318;2023-08-21T13:52:44;9.03;;;8.03;;
3916;SDS011;1973;50.518;7.318;2023-08-21T13:55:12;9.10;;;7.63;;
3916;SDS011;1973;50.518;7.318;2023-08-21T13:57:39;9.40;;;7.47;;
3916;SDS011;1973;50.518;7.318;2023-08-21T14:00:07;8.47;;;7.60;;
3916;SDS011;1973;50.518;7.318;2023-08-21T14:02:38;7.40;;;6.50;;
3916;SDS011;1973;50.518;7.318;2023-08-21T14:05:09;10.10;;;7.03;;
3916;SDS011;1973;50.518;7.318;2023-08-21T14:07:38;8.47;;;6.73;;
3916;SDS011;1973;50.518;7.318;2023-08-21T14:10:06;9.70;;;8.70;;
3916;SDS011;1973;50.518;7.318;2023-08-21T14:12:33;8.60;;;7.53;;
3916;SDS011;1973;50.518;7.318;2023-08-21T14:14:59;10.67;;;9.67;;
3916;SDS011;1973;50.518;7.318;2023-08-21T14:17:27;8.67;;;7.80;;
3916;SDS011;1973;50.518;7.318;2023-08-21T14:19:54;8.47;;;7.20;;
3916;SDS011;1973;50.518;7.318;2023-08-21T14:22:21;12.23;;;7.03;;
3916;SDS011;1973;50.518;7.318;2023-08-21T14:24:47;10.03;;;6.50;;
3916;SDS011;1973;50.518;7.318;2023-08-21T14:27:14;7.17;;;5.50;;
3916;SDS011;1973;50.518;7.318;2023-08-21T14:29:42;6.23;;;5.63;;
3916;SDS011;1973;50.518;7.318;2023-08-21T14:32:09;6.47;;;5.83;;
3916;SDS011;1973;50.518;7.318;2023-08-21T14:34:36;8.67;;;7.03;;
3916;SDS011;1973;50.518;7.318;2023-08-21T14:37:03;9.33;;;6.90;;
3916;SDS011;1973;50.518;7.318;2023-08-21T14:39:30;9.67;;;6.97;;
3916;SDS011;1973;50.518;7.318;2023-08-21T14:41:57;7.33;;;6.70;;
3916;SDS011;1973;50.518;7.318;2023-08-21T14:44:24;7.47;;;6.77;;
3916;SDS011;1973;50.518;7.318;2023-08-21T14:46:52;7.50;;;6.80;;
3916;SDS011;1973;50.518;7.318;2023-08-21T14:49:19;7.37;;;6.67;;
3916;SDS011;1973;50.518;7.318;2023-08-21T14:51:46;9.23;;;7.27;;
3916;SDS011;1973;50.518;7.318;2023-08-21T14:54:13;9.77;;;6.80;;
3916;SDS011;1973;50.518;7.318;2023-08-21T14:56:39;9.20;;;6.90;;
3916;SDS011;1973;50.518;7.318;2023-08-21T14:59:06;11.00;;;7.30;;
3916;SDS011;1973;50.518;7.318;2023-08-21T15:01:37;7.60;;;6.67;;
3916;SDS011;1973;50.518;7.318;2023-08-21T15:04:08;8.87;;;7.67;;
3916;SDS011;1973;50.518;7.318;2023-08-21T15:06:34;7.60;;;7.00;;
3916;SDS011;1973;50.518;7.318;2023-08-21T15:09:02;7.10;;;6.40;;
3916;SDS011;1973;50.518;7.318;2023-08-21T15:11:28;7.53;;;6.83;;
3916;SDS011;1973;50.518;7.318;2023-08-21T15:13:55;7.70;;;6.40;;
3916;SDS011;1973;50.518;7.318;2023-08-21T15:16:22;7.23;;;6.53;;
3916;SDS011;1973;50.518;7.318;2023-08-21T15:18:49;6.50;;;5.90;;